sensor_id;sensor_type;location;lat;lon;timestamp;temperature;humidity
15103;DHT22;7652;53.584;9.998;2024-01-16T00:02:49;1.40;99.90
15103;DHT22;7652;53.584;9.998;2024-01-16T00:06:11;1.60;99.90
15103;DHT22;7652;53.584;9.998;2024-01-16T00:09:33;1.50;99.90
15103;DHT22;7652;53.584;9.998;2024-01-16T00:12:55;1.50;99.90
15103;DHT22;7652;53.584;9.998;2024-01-16T00:16:16;1.50;99.90
15103;DHT22;7652;53.584;9.998;2024-01-16T00:19:39;1.60;99.90
15103;DHT22;7652;53.584;9.998;2024-01-16T00:23:02;1.40;99.90
15103;DHT22;7652;53.584;9.998;2024-01-16T00:26:24;1.50;99.90
15103;DHT22;7652;53.584;9.998;2024-01-16T00:29:46;1.40;99.90
15103;DHT22;7652;53.584;9.998;2024-01-16T00:33:07;1.60;99.90
15103;DHT22;7652;53.584;9.998;2024-01-16T00:36:28;1.60;99.90
15103;DHT22;7652;53.584;9.998;2024-01-16T00:39:52;1.40;99.90
15103;DHT22;7652;53.584;9.998;2024-01-16T00:43:13;1.50;99.90
15103;DHT22;7652;53.584;9.998;2024-01-16T00:46:35;1.50;99.90
15103;DHT22;7652;53.584;9.998;2024-01-16T00:49:56;1.40;99.90
15103;DHT22;7652;53.584;9.998;2024-01-16T00:53:18;1.40;99.90
15103;DHT22;7652;53.584;9.998;2024-01-16T00:56:41;1.60;99.90
15103;DHT22;7652;53.584;9.998;2024-01-16T01:00:04;1.40;99.90
15103;DHT22;7652;53.584;9.998;2024-01-16T01:03:26;1.30;99.90
15103;DHT22;7652;53.584;9.998;2024-01-16T01:06:47;1.30;99.90
15103;DHT22;7652;53.584;9.998;2024-01-16T01:10:09;1.30;99.90
15103;DHT22;7652;53.584;9.998;2024-01-16T01:13:32;1.50;99.90
15103;DHT22;7652;53.584;9.998;2024-01-16T01:16:56;1.30;99.90
15103;DHT22;7652;53.584;9.998;2024-01-16T01:20:18;1.20;99.90
15103;DHT22;7652;53.584;9.998;2024-01-16T01:23:40;1.30;99.90
15103;DHT22;7652;53.584;9.998;2024-01-16T01:27:02;1.30;99.90
15103;DHT22;7652;53.584;9.998;2024-01-16T01:30:25;1.40;99.90
15103;DHT22;7652;53.584;9.998;2024-01-16T01:33:47;1.50;99.90
15103;DHT22;7652;53.584;9.998;2024-01-16T01:37:09;1.60;99.90
15103;DHT22;7652;53.584;9.998;2024-01-16T01:40:31;1.60;99.90
15103;DHT22;7652;53.584;9.998;2024-01-16T01:43:52;1.60;99.90
15103;DHT22;7652;53.584;9.998;2024-01-16T01:47:15;1.40;99.90
15103;DHT22;7652;53.584;9.998;2024-01-16T01:50:37;1.30;99.90
15103;DHT22;7652;53.584;9.998;2024-01-16T01:54:00;1.40;99.90
15103;DHT22;7652;53.584;9.998;2024-01-16T01:57:22;1.50;99.90
15103;DHT22;7652;53.584;9.998;2024-01-16T02:00:44;1.60;99.90
15103;DHT22;7652;53.584;9.998;2024-01-16T02:04:08;1.70;99.90
15103;DHT22;7652;53.584;9.998;2024-01-16T02:07:31;1.70;99.90
15103;DHT22;7652;53.584;9.998;2024-01-16T02:10:54;1.40;99.90
15103;DHT22;7652;53.584;9.998;2024-01-16T02:14:16;1.40;99.90
15103;DHT22;7652;53.584;9.998;2024-01-16T02:17:37;1.30;99.90
15103;DHT22;7652;53.584;9.998;2024-01-16T02:21:02;1.20;99.90
15103;DHT22;7652;53.584;9.998;2024-01-16T02:24:27;1.10;99.90
15103;DHT22;7652;53.584;9.998;2024-01-16T02:27:49;1.10;99.90
15103;DHT22;7652;53.584;9.998;2024-01-16T02:31:10;1.20;99.90
15103;DHT22;7652;53.584;9.998;2024-01-16T02:34:32;1.20;99.90
15103;DHT22;7652;53.584;9.998;2024-01-16T02:37:53;1.20;99.90
15103;DHT22;7652;53.584;9.998;2024-01-16T02:41:17;1.10;99.90
15103;DHT22;7652;53.584;9.998;2024-01-16T02:44:40;1.10;99.90
15103;DHT22;7652;53.584;9.998;2024-01-16T02:48:01;1.00;99.90
15103;DHT22;7652;53.584;9.998;2024-01-16T02:51:24;0.90;99.90
15103;DHT22;7652;53.584;9.998;2024-01-16T02:54:45;0.90;99.90
15103;DHT22;7652;53.584;9.998;2024-01-16T02:58:08;0.90;99.90
15103;DHT22;7652;53.584;9.998;2024-01-16T03:01:30;0.80;99.90
15103;DHT22;7652;53.584;9.998;2024-01-16T03:04:51;0.80;99.90
15103;DHT22;7652;53.584;9.998;2024-01-16T03:08:13;0.90;99.90
15103;DHT22;7652;53.584;9.998;2024-01-16T03:11:35;0.90;99.90
15103;DHT22;7652;53.584;9.998;2024-01-16T03:14:57;0.90;99.90
15103;DHT22;7652;53.584;9.998;2024-01-16T03:18:19;0.90;99.90
15103;DHT22;7652;53.584;9.998;2024-01-16T03:21:41;1.00;99.90
15103;DHT22;7652;53.584;9.998;2024-01-16T03:25:03;0.90;99.90
15103;DHT22;7652;53.584;9.998;2024-01-16T03:28:25;1.00;99.90
15103;DHT22;7652;53.584;9.998;2024-01-16T03:31:48;1.00;99.90
15103;DHT22;7652;53.584;9.998;2024-01-16T03:35:09;1.00;99.90
15103;DHT22;7652;53.584;9.998;2024-01-16T03:38:31;0.90;99.90
15103;DHT22;7652;53.584;9.998;2024-01-16T03:41:52;0.90;99.90
15103;DHT22;7652;53.584;9.998;2024-01-16T03:45:14;0.90;99.90
15103;DHT22;7652;53.584;9.998;2024-01-16T03:48:38;0.90;99.90
15103;DHT22;7652;53.584;9.998;2024-01-16T03:52:00;0.90;99.90
15103;DHT22;7652;53.584;9.998;2024-01-16T03:55:22;1.00;99.90
15103;DHT22;7652;53.584;9.998;2024-01-16T03:58:43;1.10;99.90
15103;DHT22;7652;53.584;9.998;2024-01-16T04:02:05;1.20;99.90
15103;DHT22;7652;53.584;9.998;2024-01-16T04:05:27;1.10;99.90
15103;DHT22;7652;53.584;9.998;2024-01-16T04:08:49;1.10;99.90
15103;DHT22;7652;53.584;9.998;2024-01-16T04:12:10;1.10;99.90
15103;DHT22;7652;53.584;9.998;2024-01-16T04:15:31;1.00;99.90
15103;DHT22;7652;53.584;9.998;2024-01-16T04:18:53;1.00;99.90
15103;DHT22;7652;53.584;9.998;2024-01-16T04:22:16;0.90;99.90
15103;DHT22;7652;53.584;9.998;2024-01-16T04:25:37;0.90;99.90
15103;DHT22;7652;53.584;9.998;2024-01-16T04:29:00;1.00;99.90
15103;DHT22;7652;53.584;9.998;2024-01-16T04:32:21;0.90;99.90
15103;DHT22;7652;53.584;9.998;2024-01-16T04:35:43;0.80;99.90
15103;DHT22;7652;53.584;9.998;2024-01-16T04:39:05;0.90;99.90
15103;DHT22;7652;53.584;9.998;2024-01-16T04:42:29;1.00;99.90
15103;DHT22;7652;53.584;9.998;2024-01-16T04:45:50;0.90;99.90
15103;DHT22;7652;53.584;9.998;2024-01-16T04:49:11;0.90;99.90
15103;DHT22;7652;53.584;9.998;2024-01-16T04:52:33;1.00;99.90
15103;DHT22;7652;53.584;9.998;2024-01-16T04:55:56;1.00;99.90
15103;DHT22;7652;53.584;9.998;2024-01-16T04:59:18;0.80;99.90
15103;DHT22;7652;53.584;9.998;2024-01-16T05:02:40;0.90;99.90
15103;DHT22;7652;53.584;9.998;2024-01-16T05:06:02;0.80;99.90
15103;DHT22;7652;53.584;9.998;2024-01-16T05:09:24;0.70;99.90
15103;DHT22;7652;53.584;9.998;2024-01-16T05:12:46;0.70;99.90
15103;DHT22;7652;53.584;9.998;2024-01-16T05:16:08;0.70;99.90
15103;DHT22;7652;53.584;9.998;2024-01-16T05:19:29;0.70;99.90
15103;DHT22;7652;53.584;9.998;2024-01-16T05:22:51;0.70;99.90
15103;DHT22;7652;53.584;9.998;2024-01-16T05:26:12;0.80;99.90
15103;DHT22;7652;53.584;9.998;2024-01-16T05:29:35;0.90;99.90
15103;DHT22;7652;53.584;9.998;2024-01-16T05:33:03;0.90;99.90
15103;DHT22;7652;53.584;9.998;2024-01-16T05:36:26;1.00;99.90
15103;DHT22;7652;53.584;9.998;2024-01-16T05:39:48;1.00;99.90
15103;DHT22;7652;53.584;9.998;2024-01-16T05:43:09;1.10;99.90
15103;DHT22;7652;53.584;9.998;2024-01-16T05:46:32;1.10;99.90
15103;DHT22;7652;53.584;9.998;2024-01-16T05:49:54;1.00;99.90
15103;DHT22;7652;53.584;9.998;2024-01-16T05:53:16;0.90;99.90
15103;DHT22;7652;53.584;9.998;2024-01-16T05:56:37;1.00;99.90
15103;DHT22;7652;53.584;9.998;2024-01-16T05:59:59;1.00;99.90
15103;DHT22;7652;53.584;9.998;2024-01-16T06:03:24;1.00;99.90
15103;DHT22;7652;53.584;9.998;2024-01-16T06:06:45;1.00;99.90
15103;DHT22;7652;53.584;9.998;2024-01-16T06:10:11;1.00;99.90
15103;DHT22;7652;53.584;9.998;2024-01-16T06:13:32;1.10;99.90
15103;DHT22;7652;53.584;9.998;2024-01-16T06:16:54;1.10;99.90
15103;DHT22;7652;53.584;9.998;2024-01-16T06:20:19;1.10;99.90
15103;DHT22;7652;53.584;9.998;2024-01-16T06:23:44;1.20;99.90
15103;DHT22;7652;53.584;9.998;2024-01-16T06:27:06;1.20;99.90
15103;DHT22;7652;53.584;9.998;2024-01-16T06:30:27;1.30;99.90
15103;DHT22;7652;53.584;9.998;2024-01-16T06:33:49;1.20;99.90
15103;DHT22;7652;53.584;9.998;2024-01-16T06:37:13;1.20;99.90
15103;DHT22;7652;53.584;9.998;2024-01-16T06:40:34;1.30;99.90
15103;DHT22;7652;53.584;9.998;2024-01-16T06:43:56;1.30;99.90
15103;DHT22;7652;53.584;9.998;2024-01-16T06:47:18;1.20;99.90
15103;DHT22;7652;53.584;9.998;2024-01-16T06:50:39;1.20;99.90
15103;DHT22;7652;53.584;9.998;2024-01-16T06:54:02;1.40;99.90
15103;DHT22;7652;53.584;9.998;2024-01-16T06:57:24;1.40;99.90
15103;DHT22;7652;53.584;9.998;2024-01-16T07:00:46;1.40;99.90
15103;DHT22;7652;53.584;9.998;2024-01-16T07:04:08;1.40;99.90
15103;DHT22;7652;53.584;9.998;2024-01-16T07:07:29;1.40;99.90
15103;DHT22;7652;53.584;9.998;2024-01-16T07:10:52;1.30;99.90
15103;DHT22;7652;53.584;9.998;2024-01-16T07:14:14;1.40;99.90
15103;DHT22;7652;53.584;9.998;2024-01-16T07:17:35;1.30;99.90
15103;DHT22;7652;53.584;9.998;2024-01-16T07:20:57;1.40;99.90
15103;DHT22;7652;53.584;9.998;2024-01-16T07:24:18;1.30;99.90
15103;DHT22;7652;53.584;9.998;2024-01-16T07:27:41;1.30;99.90
15103;DHT22;7652;53.584;9.998;2024-01-16T07:31:06;1.20;99.90
15103;DHT22;7652;53.584;9.998;2024-01-16T07:34:29;1.20;99.90
15103;DHT22;7652;53.584;9.998;2024-01-16T07:37:51;1.20;99.90
15103;DHT22;7652;53.584;9.998;2024-01-16T07:41:13;1.30;99.90
15103;DHT22;7652;53.584;9.998;2024-01-16T07:44:35;1.20;99.90
15103;DHT22;7652;53.584;9.998;2024-01-16T07:47:57;1.20;99.90
15103;DHT22;7652;53.584;9.998;2024-01-16T07:51:19;1.10;99.90
15103;DHT22;7652;53.584;9.998;2024-01-16T07:54:40;1.10;99.90
15103;DHT22;7652;53.584;9.998;2024-01-16T07:58:02;1.10;99.90
15103;DHT22;7652;53.584;9.998;2024-01-16T08:01:26;1.10;99.90
15103;DHT22;7652;53.584;9.998;2024-01-16T08:04:48;1.10;99.90
15103;DHT22;7652;53.584;9.998;2024-01-16T08:08:10;1.10;99.90
15103;DHT22;7652;53.584;9.998;2024-01-16T08:11:32;1.20;99.90
15103;DHT22;7652;53.584;9.998;2024-01-16T08:14:56;1.20;99.90
15103;DHT22;7652;53.584;9.998;2024-01-16T08:18:19;1.30;99.90
15103;DHT22;7652;53.584;9.998;2024-01-16T08:21:41;1.40;99.90
15103;DHT22;7652;53.584;9.998;2024-01-16T08:25:03;1.40;99.90
15103;DHT22;7652;53.584;9.998;2024-01-16T08:28:25;1.30;99.90
15103;DHT22;7652;53.584;9.998;2024-01-16T08:31:46;1.40;99.90
15103;DHT22;7652;53.584;9.998;2024-01-16T08:35:09;1.40;99.90
15103;DHT22;7652;53.584;9.998;2024-01-16T08:38:31;1.50;99.90
15103;DHT22;7652;53.584;9.998;2024-01-16T08:41:53;1.50;99.90
15103;DHT22;7652;53.584;9.998;2024-01-16T08:45:14;1.50;99.90
15103;DHT22;7652;53.584;9.998;2024-01-16T08:48:36;1.50;99.90
15103;DHT22;7652;53.584;9.998;2024-01-16T08:52:00;1.40;99.90
15103;DHT22;7652;53.584;9.998;2024-01-16T08:55:23;1.40;99.90
15103;DHT22;7652;53.584;9.998;2024-01-16T08:58:44;1.40;99.90
15103;DHT22;7652;53.584;9.998;2024-01-16T09:02:06;1.40;99.90
15103;DHT22;7652;53.584;9.998;2024-01-16T09:05:28;1.50;99.90
15103;DHT22;7652;53.584;9.998;2024-01-16T09:08:50;1.40;99.90
15103;DHT22;7652;53.584;9.998;2024-01-16T09:12:12;1.40;99.90
15103;DHT22;7652;53.584;9.998;2024-01-16T09:15:33;1.30;99.90
15103;DHT22;7652;53.584;9.998;2024-01-16T09:18:55;1.40;99.90
15103;DHT22;7652;53.584;9.998;2024-01-16T09:22:17;1.40;99.90
15103;DHT22;7652;53.584;9.998;2024-01-16T09:25:40;1.50;99.90
15103;DHT22;7652;53.584;9.998;2024-01-16T09:29:05;1.50;99.90
15103;DHT22;7652;53.584;9.998;2024-01-16T09:32:26;1.50;99.90
15103;DHT22;7652;53.584;9.998;2024-01-16T09:35:48;1.60;99.90
15103;DHT22;7652;53.584;9.998;2024-01-16T09:39:10;1.50;99.90
15103;DHT22;7652;53.584;9.998;2024-01-16T09:42:34;1.60;99.90
15103;DHT22;7652;53.584;9.998;2024-01-16T09:45:56;1.60;99.90
15103;DHT22;7652;53.584;9.998;2024-01-16T09:49:22;1.60;99.90
15103;DHT22;7652;53.584;9.998;2024-01-16T09:52:45;1.70;99.90
15103;DHT22;7652;53.584;9.998;2024-01-16T09:56:13;1.70;99.90
15103;DHT22;7652;53.584;9.998;2024-01-16T09:59:37;1.70;99.90
15103;DHT22;7652;53.584;9.998;2024-01-16T10:03:01;1.60;99.90
15103;DHT22;7652;53.584;9.998;2024-01-16T10:06:24;1.70;99.90
15103;DHT22;7652;53.584;9.998;2024-01-16T10:09:45;1.70;99.90
15103;DHT22;7652;53.584;9.998;2024-01-16T10:13:08;1.80;99.90
15103;DHT22;7652;53.584;9.998;2024-01-16T10:16:58;1.90;99.90
15103;DHT22;7652;53.584;9.998;2024-01-16T10:20:32;1.90;99.90
15103;DHT22;7652;53.584;9.998;2024-01-16T10:23:54;1.90;99.90
15103;DHT22;7652;53.584;9.998;2024-01-16T10:27:16;1.80;99.90
15103;DHT22;7652;53.584;9.998;2024-01-16T10:30:38;1.80;99.90
15103;DHT22;7652;53.584;9.998;2024-01-16T10:34:01;2.00;99.90
15103;DHT22;7652;53.584;9.998;2024-01-16T10:37:24;2.00;99.90
15103;DHT22;7652;53.584;9.998;2024-01-16T10:40:46;2.10;99.90
15103;DHT22;7652;53.584;9.998;2024-01-16T10:44:07;2.20;99.90
15103;DHT22;7652;53.584;9.998;2024-01-16T10:47:29;2.20;99.90
15103;DHT22;7652;53.584;9.998;2024-01-16T10:50:52;2.20;99.90
15103;DHT22;7652;53.584;9.998;2024-01-16T10:54:14;2.30;99.90
15103;DHT22;7652;53.584;9.998;2024-01-16T10:57:39;2.40;99.90
15103;DHT22;7652;53.584;9.998;2024-01-16T11:01:02;2.30;99.90
15103;DHT22;7652;53.584;9.998;2024-01-16T11:04:25;2.20;99.90
15103;DHT22;7652;53.584;9.998;2024-01-16T11:07:50;2.30;99.90
15103;DHT22;7652;53.584;9.998;2024-01-16T11:11:13;2.30;99.90
15103;DHT22;7652;53.584;9.998;2024-01-16T11:14:35;2.40;99.90
15103;DHT22;7652;53.584;9.998;2024-01-16T11:17:59;2.40;99.90
15103;DHT22;7652;53.584;9.998;2024-01-16T11:21:21;2.50;99.90
15103;DHT22;7652;53.584;9.998;2024-01-16T11:24:45;2.60;99.90
15103;DHT22;7652;53.584;9.998;2024-01-16T11:28:28;2.60;99.90
15103;DHT22;7652;53.584;9.998;2024-01-16T11:31:50;2.70;99.90
15103;DHT22;7652;53.584;9.998;2024-01-16T11:35:34;2.70;99.90
15103;DHT22;7652;53.584;9.998;2024-01-16T11:38:57;2.80;99.90
15103;DHT22;7652;53.584;9.998;2024-01-16T11:42:26;2.80;99.90
15103;DHT22;7652;53.584;9.998;2024-01-16T11:45:49;2.70;99.90
15103;DHT22;7652;53.584;9.998;2024-01-16T11:49:18;2.70;99.90
15103;DHT22;7652;53.584;9.998;2024-01-16T11:52:42;2.80;99.90
15103;DHT22;7652;53.584;9.998;2024-01-16T11:56:23;2.90;99.90
15103;DHT22;7652;53.584;9.998;2024-01-16T12:00:05;2.90;99.90
15103;DHT22;7652;53.584;9.998;2024-01-16T12:03:33;2.90;99.90
15103;DHT22;7652;53.584;9.998;2024-01-16T12:06:58;2.90;99.90
15103;DHT22;7652;53.584;9.998;2024-01-16T12:10:22;2.90;99.90
15103;DHT22;7652;53.584;9.998;2024-01-16T12:13:43;2.90;99.90
15103;DHT22;7652;53.584;9.998;2024-01-16T12:17:10;2.90;99.90
15103;DHT22;7652;53.584;9.998;2024-01-16T12:20:33;2.90;99.90
15103;DHT22;7652;53.584;9.998;2024-01-16T12:23:55;3.00;99.90
15103;DHT22;7652;53.584;9.998;2024-01-16T12:27:30;2.90;99.90
15103;DHT22;7652;53.584;9.998;2024-01-16T12:30:51;3.00;99.90
15103;DHT22;7652;53.584;9.998;2024-01-16T12:34:14;3.00;99.90
15103;DHT22;7652;53.584;9.998;2024-01-16T12:37:36;3.00;99.90
15103;DHT22;7652;53.584;9.998;2024-01-16T12:40:59;3.00;99.90
15103;DHT22;7652;53.584;9.998;2024-01-16T12:44:26;2.90;99.90
15103;DHT22;7652;53.584;9.998;2024-01-16T12:47:52;3.00;99.90
15103;DHT22;7652;53.584;9.998;2024-01-16T12:51:21;3.00;99.90
15103;DHT22;7652;53.584;9.998;2024-01-16T12:54:43;3.00;99.90
15103;DHT22;7652;53.584;9.998;2024-01-16T12:58:13;2.90;99.90
15103;DHT22;7652;53.584;9.998;2024-01-16T13:01:35;2.80;99.90
15103;DHT22;7652;53.584;9.998;2024-01-16T13:05:00;2.70;99.90
15103;DHT22;7652;53.584;9.998;2024-01-16T13:08:25;2.80;99.90
15103;DHT22;7652;53.584;9.998;2024-01-16T13:11:48;2.90;99.90
15103;DHT22;7652;53.584;9.998;2024-01-16T13:15:11;2.90;99.90
15103;DHT22;7652;53.584;9.998;2024-01-16T13:18:37;2.90;99.90
15103;DHT22;7652;53.584;9.998;2024-01-16T13:21:58;2.90;99.90
15103;DHT22;7652;53.584;9.998;2024-01-16T13:25:21;2.90;99.90
15103;DHT22;7652;53.584;9.998;2024-01-16T13:28:42;3.00;99.90
15103;DHT22;7652;53.584;9.998;2024-01-16T13:32:04;3.00;99.90
15103;DHT22;7652;53.584;9.998;2024-01-16T13:35:25;2.90;99.90
15103;DHT22;7652;53.584;9.998;2024-01-16T13:38:47;2.80;99.90
15103;DHT22;7652;53.584;9.998;2024-01-16T13:42:10;2.80;99.90
15103;DHT22;7652;53.584;9.998;2024-01-16T13:45:32;2.70;99.90
15103;DHT22;7652;53.584;9.998;2024-01-16T13:48:54;2.70;99.90
15103;DHT22;7652;53.584;9.998;2024-01-16T13:52:16;2.70;99.90
15103;DHT22;7652;53.584;9.998;2024-01-16T13:55:37;2.80;99.90
15103;DHT22;7652;53.584;9.998;2024-01-16T13:59:00;2.80;99.90
15103;DHT22;7652;53.584;9.998;2024-01-16T14:02:21;2.70;99.90
15103;DHT22;7652;53.584;9.998;2024-01-16T14:05:43;2.70;99.90
15103;DHT22;7652;53.584;9.998;2024-01-16T14:09:05;2.60;99.90
15103;DHT22;7652;53.584;9.998;2024-01-16T14:12:29;2.60;99.90
15103;DHT22;7652;53.584;9.998;2024-01-16T14:15:52;2.70;99.90
15103;DHT22;7652;53.584;9.998;2024-01-16T14:19:13;2.70;99.90
15103;DHT22;7652;53.584;9.998;2024-01-16T14:22:35;2.70;99.90
15103;DHT22;7652;53.584;9.998;2024-01-16T14:25:58;2.70;99.90
15103;DHT22;7652;53.584;9.998;2024-01-16T14:29:22;2.70;99.90
15103;DHT22;7652;53.584;9.998;2024-01-16T14:32:45;2.80;99.90
15103;DHT22;7652;53.584;9.998;2024-01-16T14:36:07;2.70;99.90
15103;DHT22;7652;53.584;9.998;2024-01-16T14:39:28;2.60;99.90
15103;DHT22;7652;53.584;9.998;2024-01-16T14:42:52;2.70;99.90
15103;DHT22;7652;53.584;9.998;2024-01-16T14:46:14;2.80;99.90
15103;DHT22;7652;53.584;9.998;2024-01-16T14:49:37;2.90;99.90
15103;DHT22;7652;53.584;9.998;2024-01-16T14:52:59;2.80;99.90
15103;DHT22;7652;53.584;9.998;2024-01-16T14:56:23;2.80;99.90
15103;DHT22;7652;53.584;9.998;2024-01-16T14:59:44;2.80;99.90
15103;DHT22;7652;53.584;9.998;2024-01-16T15:03:06;2.80;99.90
15103;DHT22;7652;53.584;9.998;2024-01-16T15:06:29;2.80;99.90
15103;DHT22;7652;53.584;9.998;2024-01-16T15:09:51;2.80;99.90
15103;DHT22;7652;53.584;9.998;2024-01-16T15:13:13;2.80;99.90
15103;DHT22;7652;53.584;9.998;2024-01-16T15:16:35;2.80;99.90
15103;DHT22;7652;53.584;9.998;2024-01-16T15:19:56;2.80;99.90
15103;DHT22;7652;53.584;9.998;2024-01-16T15:23:19;2.80;99.90
15103;DHT22;7652;53.584;9.998;2024-01-16T15:26:41;2.80;99.90
15103;DHT22;7652;53.584;9.998;2024-01-16T15:30:02;2.80;99.90
15103;DHT22;7652;53.584;9.998;2024-01-16T15:33:24;2.80;99.90
15103;DHT22;7652;53.584;9.998;2024-01-16T15:36:48;2.80;99.90
15103;DHT22;7652;53.584;9.998;2024-01-16T15:40:11;2.80;99.90
15103;DHT22;7652;53.584;9.998;2024-01-16T15:43:38;2.80;99.90
15103;DHT22;7652;53.584;9.998;2024-01-16T15:47:01;2.80;99.90
15103;DHT22;7652;53.584;9.998;2024-01-16T15:50:22;2.80;99.90
15103;DHT22;7652;53.584;9.998;2024-01-16T15:53:44;2.80;99.90
15103;DHT22;7652;53.584;9.998;2024-01-16T15:57:07;2.80;99.90
15103;DHT22;7652;53.584;9.998;2024-01-16T16:00:29;2.80;99.90
15103;DHT22;7652;53.584;9.998;2024-01-16T16:03:51;2.80;99.90
15103;DHT22;7652;53.584;9.998;2024-01-16T16:07:13;2.80;99.90
15103;DHT22;7652;53.584;9.998;2024-01-16T16:10:35;2.80;99.90
15103;DHT22;7652;53.584;9.998;2024-01-16T16:13:58;2.90;99.90
15103;DHT22;7652;53.584;9.998;2024-01-16T16:17:19;2.70;99.90
15103;DHT22;7652;53.584;9.998;2024-01-16T16:20:41;2.60;99.90
15103;DHT22;7652;53.584;9.998;2024-01-16T16:24:03;2.70;99.90
15103;DHT22;7652;53.584;9.998;2024-01-16T16:27:26;2.60;99.90
15103;DHT22;7652;53.584;9.998;2024-01-16T16:30:50;2.60;99.90
15103;DHT22;7652;53.584;9.998;2024-01-16T16:34:13;2.60;99.90
15103;DHT22;7652;53.584;9.998;2024-01-16T16:37:36;2.50;99.90
15103;DHT22;7652;53.584;9.998;2024-01-16T16:40:58;2.50;99.90
15103;DHT22;7652;53.584;9.998;2024-01-16T16:44:19;2.60;99.90
15103;DHT22;7652;53.584;9.998;2024-01-16T16:47:42;2.60;99.90
15103;DHT22;7652;53.584;9.998;2024-01-16T16:51:04;2.60;99.90
15103;DHT22;7652;53.584;9.998;2024-01-16T16:54:26;2.50;99.90
15103;DHT22;7652;53.584;9.998;2024-01-16T16:57:48;2.50;99.90
15103;DHT22;7652;53.584;9.998;2024-01-16T17:01:09;2.40;99.90
15103;DHT22;7652;53.584;9.998;2024-01-16T17:04:32;2.50;99.90
15103;DHT22;7652;53.584;9.998;2024-01-16T17:07:54;2.50;99.90
15103;DHT22;7652;53.584;9.998;2024-01-16T17:11:16;2.40;99.90
15103;DHT22;7652;53.584;9.998;2024-01-16T17:14:37;2.40;99.90
15103;DHT22;7652;53.584;9.998;2024-01-16T17:17:58;2.40;99.90
15103;DHT22;7652;53.584;9.998;2024-01-16T17:21:21;2.30;99.90
15103;DHT22;7652;53.584;9.998;2024-01-16T17:24:43;2.40;99.90
15103;DHT22;7652;53.584;9.998;2024-01-16T17:28:07;2.30;99.90
15103;DHT22;7652;53.584;9.998;2024-01-16T17:31:29;2.20;99.90
15103;DHT22;7652;53.584;9.998;2024-01-16T17:34:51;2.10;99.90
15103;DHT22;7652;53.584;9.998;2024-01-16T17:38:15;2.10;99.90
15103;DHT22;7652;53.584;9.998;2024-01-16T17:41:39;2.20;99.90
15103;DHT22;7652;53.584;9.998;2024-01-16T17:45:00;2.10;99.90
15103;DHT22;7652;53.584;9.998;2024-01-16T17:48:23;2.00;99.90
15103;DHT22;7652;53.584;9.998;2024-01-16T17:51:46;2.00;99.90
15103;DHT22;7652;53.584;9.998;2024-01-16T17:55:10;2.00;99.90
15103;DHT22;7652;53.584;9.998;2024-01-16T17:58:31;1.90;99.90
15103;DHT22;7652;53.584;9.998;2024-01-16T18:01:53;2.00;99.90
15103;DHT22;7652;53.584;9.998;2024-01-16T18:05:14;2.00;99.90
15103;DHT22;7652;53.584;9.998;2024-01-16T18:08:37;2.00;99.90
15103;DHT22;7652;53.584;9.998;2024-01-16T18:12:00;1.90;99.90
15103;DHT22;7652;53.584;9.998;2024-01-16T18:15:22;2.00;99.90
15103;DHT22;7652;53.584;9.998;2024-01-16T18:18:44;2.00;99.90
15103;DHT22;7652;53.584;9.998;2024-01-16T18:22:06;2.00;99.90
15103;DHT22;7652;53.584;9.998;2024-01-16T18:25:27;2.00;99.90
15103;DHT22;7652;53.584;9.998;2024-01-16T18:28:50;2.00;99.90
15103;DHT22;7652;53.584;9.998;2024-01-16T18:32:14;2.00;99.90
15103;DHT22;7652;53.584;9.998;2024-01-16T18:35:37;2.00;99.90
15103;DHT22;7652;53.584;9.998;2024-01-16T18:38:59;2.00;99.90
15103;DHT22;7652;53.584;9.998;2024-01-16T18:42:21;1.90;99.90
15103;DHT22;7652;53.584;9.998;2024-01-16T18:45:44;2.00;99.90
15103;DHT22;7652;53.584;9.998;2024-01-16T18:49:06;1.90;99.90
15103;DHT22;7652;53.584;9.998;2024-01-16T18:52:28;1.90;99.90
15103;DHT22;7652;53.584;9.998;2024-01-16T18:55:49;1.90;99.90
15103;DHT22;7652;53.584;9.998;2024-01-16T18:59:12;1.80;99.90
15103;DHT22;7652;53.584;9.998;2024-01-16T19:02:35;1.70;99.90
15103;DHT22;7652;53.584;9.998;2024-01-16T19:05:56;1.70;99.90
15103;DHT22;7652;53.584;9.998;2024-01-16T19:09:18;1.70;99.90
15103;DHT22;7652;53.584;9.998;2024-01-16T19:12:40;1.60;99.90
15103;DHT22;7652;53.584;9.998;2024-01-16T19:16:02;1.60;99.90
15103;DHT22;7652;53.584;9.998;2024-01-16T19:19:28;1.50;99.90
15103;DHT22;7652;53.584;9.998;2024-01-16T19:22:49;1.50;99.90
15103;DHT22;7652;53.584;9.998;2024-01-16T19:26:14;1.50;99.90
15103;DHT22;7652;53.584;9.998;2024-01-16T19:29:36;1.60;99.90
15103;DHT22;7652;53.584;9.998;2024-01-16T19:32:57;1.50;99.90
15103;DHT22;7652;53.584;9.998;2024-01-16T19:36:20;1.60;99.90
15103;DHT22;7652;53.584;9.998;2024-01-16T19:39:42;1.50;99.90
15103;DHT22;7652;53.584;9.998;2024-01-16T19:43:03;1.60;99.90
15103;DHT22;7652;53.584;9.998;2024-01-16T19:46:26;1.60;99.90
15103;DHT22;7652;53.584;9.998;2024-01-16T19:49:48;1.50;99.90
15103;DHT22;7652;53.584;9.998;2024-01-16T19:53:11;1.60;99.90
15103;DHT22;7652;53.584;9.998;2024-01-16T19:56:34;1.50;99.90
15103;DHT22;7652;53.584;9.998;2024-01-16T20:00:01;1.50;99.90
15103;DHT22;7652;53.584;9.998;2024-01-16T20:03:23;1.40;99.90
15103;DHT22;7652;53.584;9.998;2024-01-16T20:06:44;1.40;99.90
15103;DHT22;7652;53.584;9.998;2024-01-16T20:10:08;1.40;99.90
15103;DHT22;7652;53.584;9.998;2024-01-16T20:13:33;1.30;99.90
15103;DHT22;7652;53.584;9.998;2024-01-16T20:16:55;1.40;99.90
15103;DHT22;7652;53.584;9.998;2024-01-16T20:20:17;1.40;99.90
15103;DHT22;7652;53.584;9.998;2024-01-16T20:23:39;1.30;99.90
15103;DHT22;7652;53.584;9.998;2024-01-16T20:27:03;1.30;99.90
15103;DHT22;7652;53.584;9.998;2024-01-16T20:30:24;1.30;99.90
15103;DHT22;7652;53.584;9.998;2024-01-16T20:33:46;1.30;99.90
15103;DHT22;7652;53.584;9.998;2024-01-16T20:37:10;1.30;99.90
15103;DHT22;7652;53.584;9.998;2024-01-16T20:40:33;1.20;99.90
15103;DHT22;7652;53.584;9.998;2024-01-16T20:43:57;1.20;99.90
15103;DHT22;7652;53.584;9.998;2024-01-16T20:47:18;1.20;99.90
15103;DHT22;7652;53.584;9.998;2024-01-16T20:50:39;1.10;99.90
15103;DHT22;7652;53.584;9.998;2024-01-16T20:54:02;1.20;99.90
15103;DHT22;7652;53.584;9.998;2024-01-16T20:57:25;1.10;99.90
15103;DHT22;7652;53.584;9.998;2024-01-16T21:00:48;1.10;99.90
15103;DHT22;7652;53.584;9.998;2024-01-16T21:04:09;1.00;99.90
15103;DHT22;7652;53.584;9.998;2024-01-16T21:07:31;1.00;99.90
15103;DHT22;7652;53.584;9.998;2024-01-16T21:10:53;1.00;99.90
15103;DHT22;7652;53.584;9.998;2024-01-16T21:14:15;0.90;99.90
15103;DHT22;7652;53.584;9.998;2024-01-16T21:17:37;0.90;99.90
15103;DHT22;7652;53.584;9.998;2024-01-16T21:20:59;0.90;99.90
15103;DHT22;7652;53.584;9.998;2024-01-16T21:24:21;0.90;99.90
15103;DHT22;7652;53.584;9.998;2024-01-16T21:27:42;0.90;99.90
15103;DHT22;7652;53.584;9.998;2024-01-16T21:31:04;0.90;99.90
15103;DHT22;7652;53.584;9.998;2024-01-16T21:34:27;0.90;99.90
15103;DHT22;7652;53.584;9.998;2024-01-16T21:37:49;0.80;99.90
15103;DHT22;7652;53.584;9.998;2024-01-16T21:41:11;0.80;99.90
15103;DHT22;7652;53.584;9.998;2024-01-16T21:44:33;0.80;99.90
15103;DHT22;7652;53.584;9.998;2024-01-16T21:47:55;0.70;99.90
15103;DHT22;7652;53.584;9.998;2024-01-16T21:51:17;0.70;99.90
15103;DHT22;7652;53.584;9.998;2024-01-16T21:54:39;0.70;99.90
15103;DHT22;7652;53.584;9.998;2024-01-16T21:58:01;0.80;99.90
15103;DHT22;7652;53.584;9.998;2024-01-16T22:01:22;0.70;99.90
15103;DHT22;7652;53.584;9.998;2024-01-16T22:04:45;0.70;99.90